Time;durP1;ratioP1;P1;durP2;ratioP2;P2;SDS_P1;SDS_P2;PMS_P1;PMS_P2;Temp;Humidity;BMP_temperature;BMP_pressure;BME280_temperature;BME280_humidity;BME280_pressure;Samples;Min_cycle;Max_cycle;Signal;HPM_P1;HPM_P2
2022/09/13 00:02:25;;;;;;;;;;;17.90;63.50;;;;;;5043232;28;87102;-42
2022/09/13 00:04:50;;;;;;;;;;;18.00;63.60;;;;;;5042656;27;88097;-42
2022/09/13 00:07:16;;;;;;;;;;;18.00;63.50;;;;;;5042649;28;88041;-42
2022/09/13 00:09:41;;;;;;;;;;;17.90;63.60;;;;;;5042730;28;87141;-42
2022/09/13 00:12:07;;;;;;;;;;;17.90;63.50;;;;;;5043662;28;87203;-42
2022/09/13 00:14:32;;;;;;;;;;;17.90;63.50;;;;;;5042530;27;89626;-42
2022/09/13 00:16:58;;;;;;;;;;;17.90;63.50;;;;;;5043002;28;87081;-42
2022/09/13 00:19:23;;;;;;;;;;;17.80;63.50;;;;;;5044707;27;87845;-42
2022/09/13 00:21:49;;;;;;;;;;;17.80;63.50;;;;;;5042099;28;87142;-42
2022/09/13 00:24:14;;;;;;;;;;;17.90;63.50;;;;;;5042909;28;87464;-42
2022/09/13 00:26:40;;;;;;;;;;;17.90;63.40;;;;;;5042693;28;87880;-42
2022/09/13 00:29:05;;;;;;;;;;;17.90;63.30;;;;;;5042926;28;87137;-42
2022/09/13 00:31:31;;;;;;;;;;;17.90;63.40;;;;;;5042881;28;87359;-42
2022/09/13 00:33:59;;;;;;;;;;;17.80;63.30;;;;;;5042592;28;88037;-42
2022/09/13 00:36:25;;;;;;;;;;;17.80;63.40;;;;;;5042721;27;86273;-42
2022/09/13 00:38:51;;;;;;;;;;;17.80;63.40;;;;;;5042885;28;87002;-42
2022/09/13 00:41:18;;;;;;;;;;;17.80;63.60;;;;;;5043842;28;89799;-42
2022/09/13 00:43:51;;;;;;;;;;;17.80;63.50;;;;;;5042074;28;88122;-42
2022/09/13 00:46:29;;;;;;;;;;;17.70;63.50;;;;;;5042169;27;89412;-42
2022/09/13 00:48:59;;;;;;;;;;;17.70;63.50;;;;;;5042273;27;86977;-42
2022/09/13 00:51:25;;;;;;;;;;;17.70;63.40;;;;;;5042585;28;87583;-42
2022/09/13 00:53:53;;;;;;;;;;;17.70;63.40;;;;;;5042347;28;87713;-42
2022/09/13 00:56:21;;;;;;;;;;;17.70;63.40;;;;;;5042360;27;87021;-42
2022/09/13 00:58:50;;;;;;;;;;;17.70;63.50;;;;;;5042433;27;88403;-42
2022/09/13 01:01:17;;;;;;;;;;;17.70;63.40;;;;;;5041138;28;89684;-42
2022/09/13 01:03:43;;;;;;;;;;;17.70;63.30;;;;;;5045156;28;86913;-42
2022/09/13 01:06:10;;;;;;;;;;;17.70;63.30;;;;;;5041785;28;88041;-42
2022/09/13 01:08:37;;;;;;;;;;;17.70;63.30;;;;;;5041346;27;88088;-42
2022/09/13 01:11:05;;;;;;;;;;;17.70;63.30;;;;;;5042519;28;88354;-42
2022/09/13 01:13:32;;;;;;;;;;;17.70;63.40;;;;;;5041883;27;88043;-42
2022/09/13 01:15:58;;;;;;;;;;;17.70;63.30;;;;;;5042125;28;87153;-42
2022/09/13 01:18:24;;;;;;;;;;;17.70;63.30;;;;;;5042140;28;87659;-42
2022/09/13 01:21:08;;;;;;;;;;;17.70;63.30;;;;;;5041770;27;87770;-42
2022/09/13 01:23:42;;;;;;;;;;;17.60;63.20;;;;;;5042470;27;87185;-42
2022/09/13 01:26:21;;;;;;;;;;;17.60;63.30;;;;;;5045433;27;86689;-41
2022/09/13 01:28:50;;;;;;;;;;;17.60;63.30;;;;;;5042076;28;86993;-42
2022/09/13 01:31:15;;;;;;;;;;;17.60;63.30;;;;;;5042671;27;87344;-42
2022/09/13 01:33:47;;;;;;;;;;;17.60;63.30;;;;;;5044628;28;89185;-42
2022/09/13 01:36:31;;;;;;;;;;;17.60;63.30;;;;;;5045570;28;87098;-42
2022/09/13 01:39:04;;;;;;;;;;;17.60;63.30;;;;;;5045080;28;88755;-42
2022/09/13 01:41:44;;;;;;;;;;;17.60;63.30;;;;;;5045066;28;87980;-42
2022/09/13 01:44:10;;;;;;;;;;;17.50;63.30;;;;;;5045351;28;87134;-42
2022/09/13 01:46:54;;;;;;;;;;;17.50;63.30;;;;;;5048093;28;86998;-42
2022/09/13 01:49:25;;;;;;;;;;;17.50;63.40;;;;;;5045340;27;87182;-42
2022/09/13 01:51:57;;;;;;;;;;;17.50;63.30;;;;;;5045918;28;87394;-42
2022/09/13 01:54:34;;;;;;;;;;;17.50;63.40;;;;;;5044599;27;89360;-42
2022/09/13 01:56:59;;;;;;;;;;;17.50;63.40;;;;;;5045157;27;86885;-42
2022/09/13 01:59:48;;;;;;;;;;;17.50;63.30;;;;;;5044938;28;89037;-42
2022/09/13 02:02:17;;;;;;;;;;;17.50;63.30;;;;;;5038521;28;87998;-42
2022/09/13 02:04:46;;;;;;;;;;;17.50;63.30;;;;;;5044991;28;87073;-42
2022/09/13 02:07:24;;;;;;;;;;;17.50;63.40;;;;;;5044881;27;87330;-42
2022/09/13 02:09:55;;;;;;;;;;;17.50;63.40;;;;;;5047657;27;88249;-42
2022/09/13 02:12:23;;;;;;;;;;;17.40;63.40;;;;;;5044684;28;87976;-42
2022/09/13 02:14:55;;;;;;;;;;;17.50;63.40;;;;;;5044561;28;88090;-42
2022/09/13 02:17:23;;;;;;;;;;;17.40;63.50;;;;;;5045252;27;86341;-42
2022/09/13 02:19:48;;;;;;;;;;;17.40;63.50;;;;;;5044740;27;88952;-42
2022/09/13 02:22:17;;;;;;;;;;;17.40;63.40;;;;;;5044553;28;88062;-42
2022/09/13 02:24:45;;;;;;;;;;;17.40;63.50;;;;;;5043970;28;88003;-42
2022/09/13 02:27:16;;;;;;;;;;;17.40;63.50;;;;;;5044285;28;88285;-42
2022/09/13 02:29:44;;;;;;;;;;;17.30;63.50;;;;;;5044265;27;88125;-42
2022/09/13 02:32:20;;;;;;;;;;;17.30;63.60;;;;;;5047481;27;87174;-42
2022/09/13 02:34:53;;;;;;;;;;;17.40;63.40;;;;;;5044507;27;88128;-42
2022/09/13 02:37:19;;;;;;;;;;;17.30;63.40;;;;;;5044465;28;87043;-42
2022/09/13 02:39:48;;;;;;;;;;;17.30;63.40;;;;;;5044138;27;87443;-42
2022/09/13 02:42:21;;;;;;;;;;;17.30;63.50;;;;;;5044535;27;86493;-42
2022/09/13 02:44:49;;;;;;;;;;;17.30;63.50;;;;;;5043646;27;87054;-42
2022/09/13 02:47:29;;;;;;;;;;;17.30;63.40;;;;;;5044397;27;87435;-42
2022/09/13 02:50:13;;;;;;;;;;;17.30;63.50;;;;;;5043291;28;89162;-42
2022/09/13 02:52:49;;;;;;;;;;;17.30;63.50;;;;;;5044343;27;87156;-42
2022/09/13 02:55:14;;;;;;;;;;;17.30;63.50;;;;;;5046759;27;87406;-42
2022/09/13 02:57:45;;;;;;;;;;;17.30;63.60;;;;;;5044248;27;87076;-42
2022/09/13 03:00:11;;;;;;;;;;;17.20;63.60;;;;;;5044463;28;87052;-42
2022/09/13 03:02:38;;;;;;;;;;;17.20;63.60;;;;;;5043628;27;87935;-42
2022/09/13 03:05:04;;;;;;;;;;;17.20;63.60;;;;;;5043911;27;87160;-42
2022/09/13 03:07:29;;;;;;;;;;;17.20;63.60;;;;;;5044278;27;87464;-42
2022/09/13 03:10:03;;;;;;;;;;;17.20;63.60;;;;;;5043961;27;87896;-42
2022/09/13 03:12:47;;;;;;;;;;;17.20;63.50;;;;;;5043803;27;86865;-42
2022/09/13 03:15:21;;;;;;;;;;;17.20;63.50;;;;;;5043225;28;87986;-42
2022/09/13 03:17:59;;;;;;;;;;;17.20;63.50;;;;;;5046495;28;87294;-42
2022/09/13 03:20:30;;;;;;;;;;;17.20;63.60;;;;;;5043612;28;88969;-42
2022/09/13 03:22:59;;;;;;;;;;;17.20;63.60;;;;;;5043574;28;88056;-42
2022/09/13 03:25:30;;;;;;;;;;;17.10;63.50;;;;;;5043969;27;87096;-42
2022/09/13 03:27:56;;;;;;;;;;;17.10;63.60;;;;;;5043605;27;88780;-42
2022/09/13 03:30:21;;;;;;;;;;;17.10;63.70;;;;;;5043518;27;87970;-42
2022/09/13 03:32:56;;;;;;;;;;;17.10;63.60;;;;;;5044276;27;86477;-42
2022/09/13 03:35:36;;;;;;;;;;;17.10;63.60;;;;;;5043910;27;87057;-41
2022/09/13 03:38:05;;;;;;;;;;;17.10;63.50;;;;;;5043242;28;88076;-42
2022/09/13 03:40:37;;;;;;;;;;;17.10;63.50;;;;;;5045683;27;88031;-42
2022/09/13 03:43:06;;;;;;;;;;;17.10;63.60;;;;;;5043070;27;87230;-42
2022/09/13 03:45:34;;;;;;;;;;;17.10;63.50;;;;;;5043468;27;87055;-42
2022/09/13 03:48:01;;;;;;;;;;;17.00;63.60;;;;;;5043337;28;87270;-42
2022/09/13 03:50:27;;;;;;;;;;;17.00;63.50;;;;;;5043276;28;88007;-42
2022/09/13 03:53:13;;;;;;;;;;;17.00;63.60;;;;;;5043185;27;87097;-42
2022/09/13 03:55:42;;;;;;;;;;;17.00;63.70;;;;;;5042828;28;87376;-42
2022/09/13 03:58:12;;;;;;;;;;;17.00;63.60;;;;;;5043475;28;87421;-42
2022/09/13 04:00:39;;;;;;;;;;;16.90;63.70;;;;;;5046148;28;87057;-42
2022/09/13 04:03:04;;;;;;;;;;;17.00;63.70;;;;;;5042545;27;87931;-42
2022/09/13 04:05:30;;;;;;;;;;;16.90;63.70;;;;;;5042352;28;88108;-42
2022/09/13 04:07:55;;;;;;;;;;;16.90;63.70;;;;;;5042790;28;88834;-42
2022/09/13 04:10:23;;;;;;;;;;;16.90;63.70;;;;;;5042931;27;87875;-42
2022/09/13 04:12:48;;;;;;;;;;;16.90;63.60;;;;;;5043164;27;87446;-42
2022/09/13 04:15:15;;;;;;;;;;;16.90;63.80;;;;;;5043280;27;87766;-42
2022/09/13 04:17:40;;;;;;;;;;;16.90;63.60;;;;;;5042580;27;89528;-42
2022/09/13 04:20:06;;;;;;;;;;;16.90;63.70;;;;;;5042757;28;86970;-42
2022/09/13 04:22:32;;;;;;;;;;;16.90;63.60;;;;;;5045896;27;87546;-42
2022/09/13 04:24:58;;;;;;;;;;;16.90;63.60;;;;;;5042639;28;87022;-42
2022/09/13 04:27:24;;;;;;;;;;;16.80;63.60;;;;;;5042689;27;89131;-42
2022/09/13 04:29:50;;;;;;;;;;;16.90;63.60;;;;;;5041642;27;90500;-42
2022/09/13 04:32:15;;;;;;;;;;;16.80;63.80;;;;;;5043062;28;87075;-41
2022/09/13 04:34:41;;;;;;;;;;;16.80;63.70;;;;;;5042924;28;87149;-42
2022/09/13 04:37:08;;;;;;;;;;;16.80;63.70;;;;;;5042444;28;87644;-42
2022/09/13 04:39:33;;;;;;;;;;;16.80;63.70;;;;;;5042374;28;87134;-42
2022/09/13 04:41:59;;;;;;;;;;;16.80;63.70;;;;;;5042702;28;87741;-41
2022/09/13 04:44:24;;;;;;;;;;;16.80;63.70;;;;;;5045086;28;87986;-42
2022/09/13 04:46:50;;;;;;;;;;;16.80;63.70;;;;;;5043129;28;87395;-42
2022/09/13 04:49:16;;;;;;;;;;;16.80;63.70;;;;;;5042170;27;87930;-42
2022/09/13 04:51:41;;;;;;;;;;;16.70;63.70;;;;;;5042643;27;87076;-41
2022/09/13 04:54:09;;;;;;;;;;;16.70;63.70;;;;;;5042232;27;88020;-42
2022/09/13 04:56:35;;;;;;;;;;;16.70;63.70;;;;;;5041861;27;88919;-41
2022/09/13 04:59:00;;;;;;;;;;;16.70;63.60;;;;;;5042644;27;86894;-42
2022/09/13 05:01:27;;;;;;;;;;;16.70;63.80;;;;;;5042089;27;88912;-42
2022/09/13 05:03:52;;;;;;;;;;;16.70;63.80;;;;;;5041522;27;89266;-42
2022/09/13 05:06:19;;;;;;;;;;;16.70;63.80;;;;;;5045771;27;87170;-42
2022/09/13 05:08:54;;;;;;;;;;;16.60;63.80;;;;;;5045290;27;87829;-42
2022/09/13 05:11:22;;;;;;;;;;;16.60;63.80;;;;;;5046526;27;86234;-42
2022/09/13 05:13:51;;;;;;;;;;;16.60;63.90;;;;;;5045914;27;87127;-41
2022/09/13 05:16:17;;;;;;;;;;;16.60;63.90;;;;;;5045460;27;88486;-42
2022/09/13 05:18:42;;;;;;;;;;;16.60;63.90;;;;;;5045416;28;89160;-41
2022/09/13 05:21:08;;;;;;;;;;;16.60;64.00;;;;;;5045933;28;88635;-42
2022/09/13 05:23:34;;;;;;;;;;;16.60;64.00;;;;;;5045410;28;87958;-42
2022/09/13 05:26:00;;;;;;;;;;;16.60;63.90;;;;;;5045857;27;87041;-42
2022/09/13 05:28:27;;;;;;;;;;;16.60;63.80;;;;;;5048190;27;87637;-42
2022/09/13 05:30:56;;;;;;;;;;;16.60;63.80;;;;;;5045718;27;87072;-42
2022/09/13 05:33:22;;;;;;;;;;;16.60;63.90;;;;;;5045526;27;88032;-42
2022/09/13 05:35:48;;;;;;;;;;;16.60;63.90;;;;;;5045647;28;87458;-42
2022/09/13 05:38:13;;;;;;;;;;;16.50;63.90;;;;;;5045669;28;87092;-42
2022/09/13 05:40:38;;;;;;;;;;;16.50;64.00;;;;;;5045539;28;86919;-42
2022/09/13 05:43:04;;;;;;;;;;;16.50;64.00;;;;;;5044493;28;89000;-42
2022/09/13 05:45:29;;;;;;;;;;;16.50;63.90;;;;;;5045437;28;87134;-41
2022/09/13 05:47:55;;;;;;;;;;;16.50;63.90;;;;;;5045178;28;87029;-42
2022/09/13 05:50:20;;;;;;;;;;;16.50;64.00;;;;;;5048131;28;87963;-42
2022/09/13 05:52:53;;;;;;;;;;;16.50;64.00;;;;;;5045396;28;87355;-42
2022/09/13 05:55:20;;;;;;;;;;;16.50;64.00;;;;;;5044849;27;87154;-42
2022/09/13 05:57:45;;;;;;;;;;;16.50;64.00;;;;;;5045321;27;86822;-42
2022/09/13 06:00:11;;;;;;;;;;;16.50;63.90;;;;;;5045669;27;87261;-42
2022/09/13 06:02:36;;;;;;;;;;;16.50;64.00;;;;;;5044637;28;88578;-42
2022/09/13 06:05:02;;;;;;;;;;;16.50;63.90;;;;;;5045008;28;87037;-42
2022/09/13 06:07:28;;;;;;;;;;;16.50;63.80;;;;;;5044069;27;88270;-42
2022/09/13 06:09:53;;;;;;;;;;;16.50;63.80;;;;;;5047606;28;89634;-42
2022/09/13 06:12:19;;;;;;;;;;;16.60;63.80;;;;;;5044946;28;87306;-42
2022/09/13 06:14:44;;;;;;;;;;;16.60;63.80;;;;;;5044602;28;87693;-42
2022/09/13 06:17:10;;;;;;;;;;;16.50;63.90;;;;;;5044710;28;87048;-42
2022/09/13 06:19:35;;;;;;;;;;;16.50;63.80;;;;;;5043945;28;87687;-42
2022/09/13 06:22:01;;;;;;;;;;;16.50;63.80;;;;;;5044494;28;88056;-42
2022/09/13 06:24:26;;;;;;;;;;;16.50;64.00;;;;;;5045354;28;86343;-42
2022/09/13 06:26:52;;;;;;;;;;;16.50;64.00;;;;;;5044815;27;86967;-41
2022/09/13 06:29:18;;;;;;;;;;;16.50;64.00;;;;;;5044268;27;88493;-42
2022/09/13 06:31:44;;;;;;;;;;;16.40;64.20;;;;;;5046886;27;87962;-42
2022/09/13 06:34:11;;;;;;;;;;;16.40;64.20;;;;;;5044437;27;87888;-42
2022/09/13 06:36:37;;;;;;;;;;;16.40;64.30;;;;;;5044645;27;87080;-42
2022/09/13 06:39:05;;;;;;;;;;;16.40;64.40;;;;;;5044536;28;87414;-42
2022/09/13 06:41:31;;;;;;;;;;;16.40;64.40;;;;;;5043931;27;87986;-41
2022/09/13 06:43:57;;;;;;;;;;;16.30;64.40;;;;;;5044603;27;87014;-42
2022/09/13 06:46:23;;;;;;;;;;;16.30;64.40;;;;;;5044128;28;89343;-42
2022/09/13 06:48:49;;;;;;;;;;;16.30;64.50;;;;;;5044678;27;87598;-42
2022/09/13 06:51:16;;;;;;;;;;;16.40;64.40;;;;;;5044204;27;87587;-42
2022/09/13 06:53:42;;;;;;;;;;;16.40;64.40;;;;;;5046899;27;87390;-42
2022/09/13 06:56:09;;;;;;;;;;;16.30;64.50;;;;;;5043561;27;88114;-42
2022/09/13 06:58:35;;;;;;;;;;;16.30;64.60;;;;;;5044165;27;88336;-42
2022/09/13 07:01:08;;;;;;;;;;;16.40;64.50;;;;;;5043807;27;87866;-42
2022/09/13 07:03:34;;;;;;;;;;;16.40;64.40;;;;;;5043821;27;87099;-41
2022/09/13 07:05:59;;;;;;;;;;;16.40;64.40;;;;;;5043804;28;87400;-42
2022/09/13 07:08:25;;;;;;;;;;;16.40;64.30;;;;;;5043494;28;88035;-42
2022/09/13 07:10:50;;;;;;;;;;;16.40;64.30;;;;;;5044058;27;86878;-42
2022/09/13 07:13:16;;;;;;;;;;;16.40;64.40;;;;;;5044539;28;87455;-42
2022/09/13 07:15:41;;;;;;;;;;;16.50;64.30;;;;;;5046499;28;87917;-42
2022/09/13 07:18:16;;;;;;;;;;;16.40;64.20;;;;;;5043983;28;87293;-42
2022/09/13 07:20:41;;;;;;;;;;;16.40;64.40;;;;;;5043150;28;89433;-42
2022/09/13 07:23:07;;;;;;;;;;;16.40;64.50;;;;;;5043886;28;87519;-42
2022/09/13 07:25:32;;;;;;;;;;;16.30;64.60;;;;;;5043957;28;87412;-42
2022/09/13 07:27:58;;;;;;;;;;;16.40;64.50;;;;;;5043593;28;88024;-42
2022/09/13 07:30:25;;;;;;;;;;;16.40;64.50;;;;;;5043061;27;87273;-42
2022/09/13 07:32:51;;;;;;;;;;;16.40;64.50;;;;;;5043571;27;87923;-42
2022/09/13 07:35:16;;;;;;;;;;;16.40;64.60;;;;;;5043328;28;88132;-42
2022/09/13 07:37:44;;;;;;;;;;;16.40;64.70;;;;;;5046944;28;86812;-42
2022/09/13 07:40:10;;;;;;;;;;;16.30;64.70;;;;;;5043203;27;87833;-42
2022/09/13 07:42:35;;;;;;;;;;;16.40;64.80;;;;;;5043267;27;87182;-42
2022/09/13 07:45:00;;;;;;;;;;;16.40;64.70;;;;;;5042776;28;87973;-42
2022/09/13 07:47:26;;;;;;;;;;;16.30;64.80;;;;;;5043079;28;88084;-42
2022/09/13 07:49:52;;;;;;;;;;;16.30;64.80;;;;;;5043517;27;86875;-42
2022/09/13 07:52:17;;;;;;;;;;;16.40;64.90;;;;;;5043183;27;88919;-42
2022/09/13 07:54:43;;;;;;;;;;;16.30;64.80;;;;;;5043074;28;87314;-42
2022/09/13 07:57:08;;;;;;;;;;;16.30;64.80;;;;;;5043301;28;87259;-42
2022/09/13 07:59:33;;;;;;;;;;;16.40;64.80;;;;;;5045782;28;87483;-42
2022/09/13 08:01:59;;;;;;;;;;;16.40;64.60;;;;;;5043865;28;86302;-41
2022/09/13 08:04:25;;;;;;;;;;;16.40;65.00;;;;;;5043204;28;87064;-42
2022/09/13 08:06:50;;;;;;;;;;;16.30;64.80;;;;;;5042303;27;89333;-42
2022/09/13 08:09:16;;;;;;;;;;;16.40;64.90;;;;;;5042416;28;88392;-42
2022/09/13 08:11:45;;;;;;;;;;;16.40;64.90;;;;;;5043204;28;88427;-42
2022/09/13 08:14:12;;;;;;;;;;;16.40;64.90;;;;;;5042503;28;88008;-42
2022/09/13 08:16:40;;;;;;;;;;;16.40;64.60;;;;;;5043050;28;87043;-42
2022/09/13 08:19:06;;;;;;;;;;;16.40;64.70;;;;;;5045464;27;88625;-42
2022/09/13 08:21:33;;;;;;;;;;;16.40;64.80;;;;;;5043046;28;87339;-42
2022/09/13 08:23:59;;;;;;;;;;;16.40;64.70;;;;;;5042615;27;88953;-42
2022/09/13 08:26:26;;;;;;;;;;;16.50;64.60;;;;;;5043042;28;87329;-42
2022/09/13 08:28:54;;;;;;;;;;;16.40;64.60;;;;;;5042715;28;87180;-42
2022/09/13 08:31:21;;;;;;;;;;;16.40;64.70;;;;;;5042652;27;87411;-42
2022/09/13 08:33:47;;;;;;;;;;;16.40;64.50;;;;;;5041729;27;90318;-42
2022/09/13 08:36:13;;;;;;;;;;;16.40;64.60;;;;;;5042895;27;87144;-41
2022/09/13 08:38:38;;;;;;;;;;;16.40;64.70;;;;;;5042867;27;87203;-42
2022/09/13 08:41:15;;;;;;;;;;;16.40;64.80;;;;;;5044585;28;87298;-42
2022/09/13 08:43:53;;;;;;;;;;;16.40;64.60;;;;;;5042793;27;87308;-42
2022/09/13 08:46:30;;;;;;;;;;;16.40;64.70;;;;;;5042135;28;87176;-41
2022/09/13 08:49:00;;;;;;;;;;;16.40;64.60;;;;;;5042596;28;87066;-42
2022/09/13 08:51:30;;;;;;;;;;;16.50;64.80;;;;;;5042827;28;87253;-42
2022/09/13 08:53:56;;;;;;;;;;;16.50;64.60;;;;;;5041987;27;89234;-42
2022/09/13 08:56:25;;;;;;;;;;;16.40;64.50;;;;;;5042599;27;87096;-42
2022/09/13 08:58:50;;;;;;;;;;;16.40;64.70;;;;;;5041762;27;87642;-42
2022/09/13 09:01:16;;;;;;;;;;;16.50;64.60;;;;;;5042081;27;87948;-42
2022/09/13 09:03:45;;;;;;;;;;;16.50;64.70;;;;;;5045642;27;87918;-42
2022/09/13 09:06:13;;;;;;;;;;;16.40;64.60;;;;;;5041529;28;88249;-42
2022/09/13 09:08:39;;;;;;;;;;;16.50;64.70;;;;;;5041459;28;87102;-42
2022/09/13 09:11:11;;;;;;;;;;;16.40;64.60;;;;;;5042525;27;87411;-42
2022/09/13 09:13:42;;;;;;;;;;;16.50;64.60;;;;;;5041988;27;88255;-41
2022/09/13 09:16:22;;;;;;;;;;;16.50;64.60;;;;;;5043252;27;86497;-42
2022/09/13 09:18:48;;;;;;;;;;;16.50;64.70;;;;;;5042207;28;86947;-42
2022/09/13 09:21:17;;;;;;;;;;;16.50;64.70;;;;;;5041509;27;89527;-42
2022/09/13 09:23:52;;;;;;;;;;;16.50;64.70;;;;;;5041211;27;88030;-42
2022/09/13 09:26:18;;;;;;;;;;;16.50;64.70;;;;;;5044477;27;89595;-42
2022/09/13 09:28:52;;;;;;;;;;;16.50;64.60;;;;;;5042079;27;87118;-42
2022/09/13 09:31:24;;;;;;;;;;;16.50;64.60;;;;;;5042291;27;87097;-42
2022/09/13 09:33:53;;;;;;;;;;;16.50;64.50;;;;;;5041717;28;87235;-42
2022/09/13 09:36:38;;;;;;;;;;;16.60;64.50;;;;;;5041757;28;87706;-42
2022/09/13 09:39:04;;;;;;;;;;;16.50;64.60;;;;;;5041905;28;88833;-42
2022/09/13 09:41:31;;;;;;;;;;;16.50;64.50;;;;;;5042130;27;87616;-42
2022/09/13 09:44:15;;;;;;;;;;;16.60;64.40;;;;;;5041646;27;87034;-42
2022/09/13 09:46:41;;;;;;;;;;;16.50;64.40;;;;;;5041746;27;88747;-42
2022/09/13 09:52:00;;;;;;;;;;;16.60;64.40;;;;;;5041050;28;87599;-42
2022/09/13 09:54:26;;;;;;;;;;;16.60;64.20;;;;;;5044780;27;88100;-42
2022/09/13 09:56:54;;;;;;;;;;;16.70;64.20;;;;;;5045260;27;87089;-42
2022/09/13 09:59:32;;;;;;;;;;;16.60;64.20;;;;;;5045236;27;88044;-42
2022/09/13 10:01:59;;;;;;;;;;;16.60;64.30;;;;;;5044459;28;89512;-42
2022/09/13 10:04:25;;;;;;;;;;;16.60;64.30;;;;;;5044921;28;87160;-42
2022/09/13 10:07:06;;;;;;;;;;;16.60;64.20;;;;;;5045420;27;86577;-42
2022/09/13 10:09:32;;;;;;;;;;;16.60;64.30;;;;;;5044238;27;88145;-42
2022/09/13 10:11:58;;;;;;;;;;;16.60;64.20;;;;;;5047856;27;87355;-42
2022/09/13 10:14:30;;;;;;;;;;;16.60;64.20;;;;;;5043741;27;88929;-42
2022/09/13 10:17:04;;;;;;;;;;;16.60;64.20;;;;;;5044949;28;87066;-42
2022/09/13 10:19:31;;;;;;;;;;;16.60;64.10;;;;;;5044842;28;87456;-42
2022/09/13 10:22:04;;;;;;;;;;;16.70;64.10;;;;;;5044310;27;89227;-42
2022/09/13 10:24:30;;;;;;;;;;;16.70;64.20;;;;;;5044500;27;87106;-42
2022/09/13 10:26:57;;;;;;;;;;;16.60;64.20;;;;;;5044881;28;87456;-42
2022/09/13 10:29:23;;;;;;;;;;;16.60;64.20;;;;;;5044041;27;89158;-42
2022/09/13 10:31:52;;;;;;;;;;;16.70;64.30;;;;;;5048209;27;86662;-42
2022/09/13 10:34:26;;;;;;;;;;;16.60;64.30;;;;;;5044003;28;87375;-42
2022/09/13 10:36:51;;;;;;;;;;;16.70;64.30;;;;;;5044662;28;86885;-42
2022/09/13 10:39:19;;;;;;;;;;;16.70;64.20;;;;;;5044186;28;88132;-42
2022/09/13 10:41:52;;;;;;;;;;;16.70;64.20;;;;;;5044200;27;88041;-42
2022/09/13 10:44:21;;;;;;;;;;;16.70;64.30;;;;;;5044425;28;87110;-42
2022/09/13 10:46:47;;;;;;;;;;;16.70;64.20;;;;;;5044297;28;87468;-42
2022/09/13 10:49:32;;;;;;;;;;;16.80;64.20;;;;;;5044322;27;87131;-42
2022/09/13 10:51:57;;;;;;;;;;;16.70;64.30;;;;;;5044179;27;87103;-42
2022/09/13 10:54:23;;;;;;;;;;;16.70;64.30;;;;;;5046874;28;87594;-42
2022/09/13 10:56:49;;;;;;;;;;;16.80;64.30;;;;;;5044750;28;86386;-42
2022/09/13 10:59:15;;;;;;;;;;;16.80;64.90;;;;;;5044165;27;86966;-42
2022/09/13 11:01:49;;;;;;;;;;;16.80;64.20;;;;;;5043888;28;88060;-42
2022/09/13 11:04:33;;;;;;;;;;;16.80;64.10;;;;;;5042845;28;88069;-42
2022/09/13 11:07:15;;;;;;;;;;;16.80;64.20;;;;;;5043640;28;89611;-42
2022/09/13 11:10:00;;;;;;;;;;;16.90;64.40;;;;;;5043401;28;86806;-42
2022/09/13 11:12:37;;;;;;;;;;;16.80;64.30;;;;;;5043994;27;87134;-42
2022/09/13 11:15:06;;;;;;;;;;;16.90;64.40;;;;;;5043966;28;87820;-42
2022/09/13 11:17:48;;;;;;;;;;;16.90;64.20;;;;;;5046329;27;88363;-42
2022/09/13 11:20:14;;;;;;;;;;;16.90;64.30;;;;;;5043896;28;87390;-42
2022/09/13 11:23:02;;;;;;;;;;;16.90;65.00;;;;;;5043725;27;89278;-42
2022/09/13 11:25:46;;;;;;;;;;;16.90;64.30;;;;;;5043833;27;87042;-42
2022/09/13 11:28:27;;;;;;;;;;;16.90;64.40;;;;;;5043657;27;88045;-42
2022/09/13 11:30:55;;;;;;;;;;;16.90;64.90;;;;;;5042398;27;88993;-42
2022/09/13 11:33:24;;;;;;;;;;;16.90;64.20;;;;;;5043791;27;87127;-42
2022/09/13 11:36:09;;;;;;;;;;;16.90;64.20;;;;;;5043804;28;87323;-42
2022/09/13 11:38:35;;;;;;;;;;;17.00;64.10;;;;;;5043568;27;88009;-42
2022/09/13 11:41:12;;;;;;;;;;;17.00;64.00;;;;;;5046277;28;87605;-42
2022/09/13 11:44:04;;;;;;;;;;;17.00;64.00;;;;;;5041793;28;91044;-42
2022/09/13 11:46:38;;;;;;;;;;;17.00;64.00;;;;;;5026096;27;87185;-42
2022/09/13 11:49:03;;;;;;;;;;;17.00;63.80;;;;;;5043865;27;88575;-42
2022/09/13 11:51:49;;;;;;;;;;;17.10;63.80;;;;;;5042929;28;88478;-42
2022/09/13 11:54:14;;;;;;;;;;;17.10;63.80;;;;;;5043302;27;87063;-42
2022/09/13 11:56:48;;;;;;;;;;;17.10;63.70;;;;;;5042977;28;88070;-42
2022/09/13 11:59:19;;;;;;;;;;;17.10;63.70;;;;;;5043129;28;87947;-42
2022/09/13 12:01:48;;;;;;;;;;;17.20;63.70;;;;;;5043151;28;86955;-42
2022/09/13 12:04:19;;;;;;;;;;;17.20;63.70;;;;;;5045481;27;88701;-42
2022/09/13 12:06:47;;;;;;;;;;;17.20;63.70;;;;;;5042919;27;86880;-42
2022/09/13 12:09:18;;;;;;;;;;;17.20;63.60;;;;;;5042522;27;88960;-42
2022/09/13 12:12:04;;;;;;;;;;;17.20;63.60;;;;;;5043154;27;87809;-42
2022/09/13 12:14:34;;;;;;;;;;;17.20;63.70;;;;;;5042947;28;86231;-42
2022/09/13 12:17:05;;;;;;;;;;;17.20;63.60;;;;;;5042097;27;86957;-42
2022/09/13 12:19:49;;;;;;;;;;;17.30;63.60;;;;;;5042983;27;88040;-42
2022/09/13 12:22:14;;;;;;;;;;;17.30;63.60;;;;;;5042203;27;88018;-42
2022/09/13 12:24:42;;;;;;;;;;;17.30;63.60;;;;;;5045532;27;88424;-42
2022/09/13 12:27:14;;;;;;;;;;;17.30;63.60;;;;;;5042673;27;87108;-42
2022/09/13 12:30:00;;;;;;;;;;;17.30;63.60;;;;;;5042843;28;87460;-42
2022/09/13 12:32:25;;;;;;;;;;;17.30;63.50;;;;;;5034368;28;88138;-42
2022/09/13 12:34:54;;;;;;;;;;;17.30;63.50;;;;;;5042900;27;87950;-42
2022/09/13 12:37:38;;;;;;;;;;;17.40;63.50;;;;;;5042955;28;88228;-42
2022/09/13 12:40:12;;;;;;;;;;;17.40;63.50;;;;;;5043063;27;87332;-42
2022/09/13 12:42:44;;;;;;;;;;;17.40;63.40;;;;;;5042882;27;87148;-42
2022/09/13 12:45:32;;;;;;;;;;;17.40;63.30;;;;;;5042886;27;87337;-42
2022/09/13 12:48:19;;;;;;;;;;;17.40;63.30;;;;;;5044346;27;90314;-42
2022/09/13 12:50:45;;;;;;;;;;;17.40;63.40;;;;;;5042473;28;89051;-42
2022/09/13 12:53:29;;;;;;;;;;;17.40;63.30;;;;;;5042337;27;87934;-42
2022/09/13 12:56:03;;;;;;;;;;;17.50;63.40;;;;;;5042638;27;87207;-42
2022/09/13 12:58:36;;;;;;;;;;;17.50;63.50;;;;;;5042245;28;87451;-42
2022/09/13 13:01:15;;;;;;;;;;;17.40;63.40;;;;;;5041961;27;89327;-42
2022/09/13 13:03:49;;;;;;;;;;;17.40;63.40;;;;;;5042230;27;86939;-42
2022/09/13 13:06:38;;;;;;;;;;;17.50;63.40;;;;;;5042465;27;88656;-42
2022/09/13 13:09:06;;;;;;;;;;;17.50;63.40;;;;;;5035334;27;88092;-42
2022/09/13 13:11:41;;;;;;;;;;;17.50;63.30;;;;;;5045300;27;87171;-41
2022/09/13 13:14:21;;;;;;;;;;;17.50;63.30;;;;;;5041447;27;90228;-42
2022/09/13 13:16:48;;;;;;;;;;;17.60;63.30;;;;;;5042356;27;87418;-42
2022/09/13 13:19:27;;;;;;;;;;;17.60;63.20;;;;;;5042166;27;89121;-42
2022/09/13 13:21:54;;;;;;;;;;;17.60;63.20;;;;;;5041737;27;88014;-42
2022/09/13 13:24:20;;;;;;;;;;;17.60;63.30;;;;;;5042042;27;87123;-42
2022/09/13 13:26:55;;;;;;;;;;;17.60;63.30;;;;;;5041852;27;88556;-42
2022/09/13 13:29:22;;;;;;;;;;;17.60;63.30;;;;;;5045076;28;88026;-42
2022/09/13 13:31:57;;;;;;;;;;;17.60;63.30;;;;;;5045960;28;86472;-42
2022/09/13 13:34:22;;;;;;;;;;;17.60;63.30;;;;;;5048373;27;86917;-42
2022/09/13 13:36:51;;;;;;;;;;;17.60;63.30;;;;;;5045239;28;87144;-42
2022/09/13 13:39:26;;;;;;;;;;;17.60;63.20;;;;;;5044745;27;88909;-42
2022/09/13 13:41:52;;;;;;;;;;;17.70;63.20;;;;;;5045064;27;88034;-42
2022/09/13 13:44:18;;;;;;;;;;;17.70;63.20;;;;;;5045410;28;87075;-41
2022/09/13 13:46:44;;;;;;;;;;;17.70;63.20;;;;;;5045015;27;88969;-42
2022/09/13 13:49:31;;;;;;;;;;;17.70;63.10;;;;;;5045171;27;87783;-42
2022/09/13 13:52:16;;;;;;;;;;;17.70;63.20;;;;;;5045096;27;87108;-42
2022/09/13 13:54:46;;;;;;;;;;;17.70;63.10;;;;;;5045094;27;87394;-42
2022/09/13 13:57:29;;;;;;;;;;;17.80;63.10;;;;;;5047995;28;87795;-42
2022/09/13 14:00:03;;;;;;;;;;;17.80;63.00;;;;;;5045128;27;88143;-42
2022/09/13 14:02:47;;;;;;;;;;;17.80;63.10;;;;;;5044733;27;88701;-42
2022/09/13 14:05:17;;;;;;;;;;;17.80;63.10;;;;;;5044705;27;88270;-42
2022/09/13 14:07:46;;;;;;;;;;;17.80;63.00;;;;;;5042775;28;89832;-42
2022/09/13 14:10:30;;;;;;;;;;;17.80;63.10;;;;;;5044929;28;88022;-42
2022/09/13 14:13:15;;;;;;;;;;;17.80;63.10;;;;;;5044899;27;87109;-42
2022/09/13 14:15:51;;;;;;;;;;;17.80;63.10;;;;;;5044686;27;88831;-42
2022/09/13 14:18:20;;;;;;;;;;;17.80;63.00;;;;;;5044203;27;89512;-42
2022/09/13 14:21:04;;;;;;;;;;;17.90;63.10;;;;;;5047850;27;87124;-42
2022/09/13 14:23:30;;;;;;;;;;;17.80;62.90;;;;;;5044776;28;87352;-42
2022/09/13 14:25:57;;;;;;;;;;;17.90;63.00;;;;;;5044939;27;87332;-42
2022/09/13 14:28:23;;;;;;;;;;;17.90;63.00;;;;;;5044435;27;88959;-42
2022/09/13 14:30:52;;;;;;;;;;;17.80;62.80;;;;;;5043921;27;88940;-42
2022/09/13 14:33:36;;;;;;;;;;;17.90;63.00;;;;;;5044490;27;87083;-41
2022/09/13 14:36:06;;;;;;;;;;;17.90;62.90;;;;;;5044932;27;87483;-42